Time;durP1;ratioP1;P1;durP2;ratioP2;P2;SDS_P1;SDS_P2;PMS_P1;PMS_P2;Temp;Humidity;BMP_temperature;BMP_pressure;BME280_temperature;BME280_humidity;BME280_pressure;Samples;Min_cycle;Max_cycle;Signal;HPM_P1;HPM_P2
2022/03/27 00:02:16;;;;;;;59.00;27.58;;;;;;;;;;4829978;29;20047;-81
2022/03/27 00:05:01;;;;;;;65.80;29.80;;;;;;;;;;4836476;29;20046;-81
2022/03/27 00:07:49;;;;;;;58.25;24.35;;;;;;;;;;4830239;29;20046;-81
2022/03/27 00:11:23;;;;;;;70.85;28.25;;;;;;;;;;4829556;29;20038;-80
2022/03/27 00:13:41;;;;;;;89.20;31.17;;;;;;;;;;4831900;29;20502;-80
2022/03/27 00:16:28;;;;;;;89.03;29.95;;;;;;;;;;4838934;29;20046;-81
2022/03/27 00:19:13;;;;;;;76.53;29.67;;;;;;;;;;4840394;29;20034;-81
2022/03/27 00:21:59;;;;;;;61.85;25.50;;;;;;;;;;4831531;29;20050;-81
2022/03/27 00:24:44;;;;;;;70.72;28.15;;;;;;;;;;4840808;29;20047;-80
2022/03/27 00:27:32;;;;;;;72.63;28.13;;;;;;;;;;4845418;29;20050;-80
2022/03/27 00:30:17;;;;;;;82.68;28.70;;;;;;;;;;4833099;29;20050;-79
2022/03/27 00:33:03;;;;;;;68.70;28.17;;;;;;;;;;4825990;29;20050;-79
2022/03/27 00:35:49;;;;;;;56.88;23.55;;;;;;;;;;4838446;29;20050;-77
2022/03/27 00:38:34;;;;;;;44.15;15.35;;;;;;;;;;4832888;29;20054;-79
2022/03/27 00:41:23;;;;;;;27.50;12.30;;;;;;;;;;4833730;29;20046;-79
2022/03/27 00:44:09;;;;;;;22.42;10.63;;;;;;;;;;4831829;29;20050;-80
2022/03/27 00:46:54;;;;;;;18.58;9.18;;;;;;;;;;4833583;29;20058;-79
2022/03/27 00:49:44;;;;;;;22.95;9.18;;;;;;;;;;4839529;29;20058;-80
2022/03/27 00:52:32;;;;;;;17.45;9.13;;;;;;;;;;4840835;29;20058;-80
2022/03/27 00:55:18;;;;;;;13.02;8.13;;;;;;;;;;4839680;29;20062;-80
2022/03/27 00:58:04;;;;;;;23.73;8.40;;;;;;;;;;4825930;29;20046;-79
2022/03/27 01:00:54;;;;;;;16.83;7.75;;;;;;;;;;4834189;29;20054;-79
2022/03/27 01:03:39;;;;;;;15.73;8.13;;;;;;;;;;4838490;29;20050;-79
2022/03/27 01:06:35;;;;;;;18.98;7.68;;;;;;;;;;4826171;29;20050;-79
2022/03/27 01:09:36;;;;;;;17.50;8.68;;;;;;;;;;4830679;29;20050;-80
2022/03/27 01:12:27;;;;;;;17.45;8.38;;;;;;;;;;4838889;29;20390;-80
2022/03/27 01:15:51;;;;;;;16.05;8.85;;;;;;;;;;4832058;29;20047;-82
2022/03/27 01:18:36;;;;;;;35.15;14.57;;;;;;;;;;4826478;29;20051;-79
2022/03/27 01:21:21;;;;;;;42.65;19.00;;;;;;;;;;4825822;29;20054;-79
2022/03/27 01:24:07;;;;;;;40.97;19.45;;;;;;;;;;4825454;29;20042;-80
2022/03/27 01:26:52;;;;;;;39.78;18.55;;;;;;;;;;4826483;29;20462;-81
2022/03/27 01:29:38;;;;;;;30.20;13.02;;;;;;;;;;4825420;29;20501;-80
2022/03/27 01:32:23;;;;;;;22.50;11.23;;;;;;;;;;4831995;29;20058;-80
2022/03/27 01:35:12;;;;;;;23.60;11.32;;;;;;;;;;4825194;29;20050;-80
2022/03/27 01:37:57;;;;;;;24.92;11.07;;;;;;;;;;4825304;29;20402;-81
2022/03/27 01:40:43;;;;;;;22.10;11.05;;;;;;;;;;4831040;29;20054;-81
2022/03/27 01:43:28;;;;;;;28.73;11.77;;;;;;;;;;4825056;29;20482;-80
2022/03/27 01:46:14;;;;;;;34.75;12.73;;;;;;;;;;4825158;29;20046;-80
2022/03/27 01:49:02;;;;;;;30.42;16.08;;;;;;;;;;4831081;29;20046;-80
2022/03/27 01:51:47;;;;;;;35.40;18.20;;;;;;;;;;4825227;29;20051;-79
2022/03/27 01:54:34;;;;;;;35.40;15.00;;;;;;;;;;4825597;29;20054;-81
2022/03/27 01:57:20;;;;;;;33.08;15.23;;;;;;;;;;4824776;29;20058;-79
2022/03/27 02:00:06;;;;;;;24.88;12.15;;;;;;;;;;4825385;29;20050;-79
2022/03/27 02:02:58;;;;;;;19.00;10.02;;;;;;;;;;4812610;29;20050;-81
2022/03/27 02:05:43;;;;;;;23.23;8.48;;;;;;;;;;4824981;29;20050;-80
2022/03/27 02:08:29;;;;;;;16.95;8.95;;;;;;;;;;4825439;29;20054;-80
2022/03/27 02:40:37;;;;;;;26.42;11.52;;;;;;;;;;5152879;27;20371;-77
2022/03/27 02:43:23;;;;;;;20.38;9.57;;;;;;;;;;5152235;27;20035;-78
2022/03/27 02:46:08;;;;;;;14.23;8.07;;;;;;;;;;5152526;27;20050;-78
2022/03/27 02:48:54;;;;;;;14.63;8.02;;;;;;;;;;5152475;27;20043;-79
2022/03/27 02:51:41;;;;;;;23.85;8.50;;;;;;;;;;5152382;27;20399;-78
2022/03/27 02:54:27;;;;;;;18.42;8.30;;;;;;;;;;5152840;27;20475;-78
2022/03/27 02:57:12;;;;;;;16.80;10.13;;;;;;;;;;5143383;27;20039;-79
2022/03/27 02:59:59;;;;;;;22.67;10.82;;;;;;;;;;5152021;27;20502;-79
2022/03/27 03:02:44;;;;;;;20.83;10.20;;;;;;;;;;5152324;27;20047;-79
2022/03/27 03:05:29;;;;;;;26.50;11.95;;;;;;;;;;5151948;27;20039;-79
2022/03/27 03:08:17;;;;;;;19.20;11.32;;;;;;;;;;5152477;27;20475;-79
2022/03/27 03:11:02;;;;;;;26.92;11.98;;;;;;;;;;5151756;27;20042;-79
2022/03/27 03:13:49;;;;;;;30.48;13.35;;;;;;;;;;5152146;27;20038;-79
2022/03/27 03:16:37;;;;;;;30.15;13.55;;;;;;;;;;5152157;27;20047;-78
2022/03/27 03:19:22;;;;;;;26.85;14.13;;;;;;;;;;5150980;27;20043;-78
2022/03/27 03:22:09;;;;;;;26.67;13.80;;;;;;;;;;5151898;27;20043;-78
2022/03/27 03:24:54;;;;;;;29.77;13.77;;;;;;;;;;5151433;27;20062;-78
2022/03/27 03:27:40;;;;;;;28.27;14.32;;;;;;;;;;5151730;27;20047;-78
2022/03/27 03:30:26;;;;;;;28.55;13.52;;;;;;;;;;5151828;27;20047;-78
2022/03/27 03:33:11;;;;;;;32.58;14.85;;;;;;;;;;5135573;27;20039;-78
2022/03/27 03:35:57;;;;;;;34.38;15.20;;;;;;;;;;5151713;27;20043;-78
2022/03/27 03:38:42;;;;;;;28.95;15.02;;;;;;;;;;5140732;27;20038;-78
2022/03/27 03:41:27;;;;;;;22.83;12.90;;;;;;;;;;5137738;27;20035;-78
2022/03/27 03:44:12;;;;;;;25.85;11.88;;;;;;;;;;5137768;27;20034;-78
2022/03/27 03:46:58;;;;;;;27.30;13.68;;;;;;;;;;5137099;27;20487;-79
2022/03/27 03:49:43;;;;;;;24.10;12.05;;;;;;;;;;5138336;27;20051;-79
2022/03/27 03:52:29;;;;;;;25.75;11.60;;;;;;;;;;5138004;27;20039;-80
2022/03/27 03:55:16;;;;;;;23.40;12.23;;;;;;;;;;5137120;27;20059;-79
2022/03/27 03:58:02;;;;;;;31.95;11.98;;;;;;;;;;5137709;27;20047;-80
2022/03/27 04:00:50;;;;;;;25.55;11.23;;;;;;;;;;5137048;27;20043;-80
2022/03/27 04:03:36;;;;;;;22.50;10.77;;;;;;;;;;5137352;27;20038;-79
2022/03/27 04:06:22;;;;;;;41.92;11.77;;;;;;;;;;5137246;27;20043;-79
2022/03/27 04:09:07;;;;;;;21.98;11.25;;;;;;;;;;5136839;27;20047;-79
2022/03/27 04:11:53;;;;;;;28.33;12.93;;;;;;;;;;5137396;27;20047;-79
2022/03/27 04:14:39;;;;;;;24.98;11.13;;;;;;;;;;5136603;27;20399;-78
2022/03/27 04:17:24;;;;;;;23.90;11.27;;;;;;;;;;5137189;27;20035;-77
2022/03/27 04:20:13;;;;;;;21.75;10.23;;;;;;;;;;5137134;27;20039;-79
2022/03/27 04:22:58;;;;;;;29.63;15.20;;;;;;;;;;5136524;27;20418;-78
2022/03/27 04:25:45;;;;;;;31.30;14.95;;;;;;;;;;5121754;27;20039;-79
2022/03/27 04:28:31;;;;;;;22.42;12.52;;;;;;;;;;5136641;27;20042;-79
2022/03/27 04:31:18;;;;;;;25.98;12.07;;;;;;;;;;5156793;27;20035;-77
2022/03/27 04:34:03;;;;;;;24.50;11.32;;;;;;;;;;5146899;27;20039;-77
2022/03/27 04:36:49;;;;;;;26.20;11.30;;;;;;;;;;5136939;27;20479;-78
2022/03/27 04:39:34;;;;;;;28.27;12.15;;;;;;;;;;5136413;27;20051;-77
2022/03/27 04:42:20;;;;;;;27.38;12.38;;;;;;;;;;5136616;27;20035;-78
2022/03/27 04:45:06;;;;;;;24.98;11.75;;;;;;;;;;5136135;27;20043;-78
2022/03/27 04:47:52;;;;;;;26.05;12.13;;;;;;;;;;5136526;27;20043;-78
2022/03/27 04:50:37;;;;;;;33.63;15.90;;;;;;;;;;5135671;27;20511;-78
2022/03/27 04:53:23;;;;;;;65.93;26.98;;;;;;;;;;5135559;27;20043;-77
2022/03/27 04:56:08;;;;;;;74.50;31.63;;;;;;;;;;5121025;27;20038;-78
2022/03/27 04:58:53;;;;;;;45.22;20.92;;;;;;;;;;5135343;27;20035;-78
2022/03/27 05:01:39;;;;;;;28.95;15.25;;;;;;;;;;5138671;27;20043;-78
2022/03/27 05:04:25;;;;;;;26.80;14.40;;;;;;;;;;5138371;27;20047;-79
2022/03/27 05:07:11;;;;;;;20.73;12.45;;;;;;;;;;5135800;27;20039;-79
2022/03/27 05:09:57;;;;;;;20.75;11.35;;;;;;;;;;5135848;27;20487;-78
2022/03/27 05:12:42;;;;;;;32.13;11.50;;;;;;;;;;5135253;27;20047;-79
2022/03/27 05:15:28;;;;;;;27.10;12.60;;;;;;;;;;5136251;27;20464;-79
2022/03/27 05:18:14;;;;;;;39.92;17.30;;;;;;;;;;5135595;27;20047;-80
2022/03/27 05:20:59;;;;;;;60.17;22.15;;;;;;;;;;5135600;27;20055;-79
2022/03/27 05:23:45;;;;;;;63.22;27.35;;;;;;;;;;5135220;27;20055;-78
2022/03/27 05:26:30;;;;;;;53.33;25.40;;;;;;;;;;5134809;27;20400;-77
2022/03/27 05:29:15;;;;;;;54.72;23.90;;;;;;;;;;5135281;27;20051;-78
2022/03/27 05:32:01;;;;;;;48.90;23.10;;;;;;;;;;5135383;27;20055;-80
2022/03/27 05:34:46;;;;;;;58.33;28.02;;;;;;;;;;5134723;27;20051;-79
2022/03/27 05:37:40;;;;;;;53.20;26.00;;;;;;;;;;5135687;27;20043;-78
2022/03/27 05:40:27;;;;;;;116.10;58.22;;;;;;;;;;5134432;27;20055;-80
2022/03/27 05:43:13;;;;;;;47.67;27.05;;;;;;;;;;5126897;27;20039;-78
2022/03/27 05:45:58;;;;;;;37.78;21.88;;;;;;;;;;5135445;27;20035;-79
2022/03/27 05:48:44;;;;;;;37.53;19.30;;;;;;;;;;5126166;27;20051;-79
2022/03/27 05:51:29;;;;;;;43.03;21.63;;;;;;;;;;5119799;27;20495;-79
2022/03/27 05:54:15;;;;;;;43.22;22.67;;;;;;;;;;5134654;27;20523;-79
2022/03/27 05:57:00;;;;;;;41.75;22.83;;;;;;;;;;5134854;27;20478;-78
2022/03/27 05:59:46;;;;;;;30.13;14.25;;;;;;;;;;5134760;27;20047;-79
2022/03/27 06:02:32;;;;;;;31.75;18.60;;;;;;;;;;5134252;27;20039;-78
2022/03/27 06:05:22;;;;;;;37.88;20.65;;;;;;;;;;5134995;27;20035;-78
2022/03/27 06:08:08;;;;;;;28.35;13.32;;;;;;;;;;5134535;27;20051;-78
2022/03/27 06:10:53;;;;;;;29.13;15.55;;;;;;;;;;5134771;27;20392;-80
2022/03/27 06:13:39;;;;;;;28.27;16.00;;;;;;;;;;5141555;27;20043;-80
2022/03/27 06:16:24;;;;;;;36.95;11.85;;;;;;;;;;5134318;27;20039;-80
2022/03/27 06:19:10;;;;;;;23.45;9.05;;;;;;;;;;5134284;27;20047;-80
2022/03/27 06:21:59;;;;;;;23.80;8.05;;;;;;;;;;5119147;27;20043;-80
2022/03/27 06:24:45;;;;;;;7.53;3.15;;;;;;;;;;5134196;27;20055;-80
2022/03/27 06:27:31;;;;;;;15.65;6.97;;;;;;;;;;5135283;28;20043;-80
2022/03/27 06:30:26;;;;;;;14.95;7.20;;;;;;;;;;5134102;28;20043;-79
2022/03/27 06:33:14;;;;;;;12.85;6.28;;;;;;;;;;5134464;28;20491;-79
2022/03/27 06:36:01;;;;;;;7.20;4.97;;;;;;;;;;5134410;28;20411;-80
2022/03/27 06:38:47;;;;;;;9.90;5.90;;;;;;;;;;5133691;28;20036;-81
2022/03/27 06:41:33;;;;;;;13.88;6.53;;;;;;;;;;5137534;28;20039;-81
2022/03/27 06:44:19;;;;;;;9.45;4.55;;;;;;;;;;5159373;27;20043;-80
2022/03/27 06:47:09;;;;;;;11.38;5.82;;;;;;;;;;5137254;28;20051;-79
2022/03/27 06:49:56;;;;;;;21.77;8.85;;;;;;;;;;5119465;28;20400;-80
2022/03/27 06:52:44;;;;;;;18.90;7.25;;;;;;;;;;5133797;28;20051;-80
2022/03/27 06:55:30;;;;;;;12.98;5.93;;;;;;;;;;5134551;28;20388;-80
2022/03/27 06:58:16;;;;;;;9.73;4.47;;;;;;;;;;5133694;28;20040;-80
2022/03/27 07:04:06;;;;;;;18.63;7.40;;;;;;;;;;5134293;28;20047;-80
2022/03/27 07:06:52;;;;;;;7.25;4.22;;;;;;;;;;5133620;28;20039;-80
2022/03/27 07:09:37;;;;;;;9.00;4.20;;;;;;;;;;5134284;28;20475;-80
2022/03/27 07:12:24;;;;;;;9.32;4.38;;;;;;;;;;5133391;28;20638;-79
2022/03/27 07:15:10;;;;;;;7.90;4.32;;;;;;;;;;5134353;27;20043;-79
2022/03/27 07:17:56;;;;;;;9.98;4.85;;;;;;;;;;5138034;27;20504;-79
2022/03/27 07:20:42;;;;;;;7.15;4.30;;;;;;;;;;5137015;27;20039;-79
2022/03/27 07:23:28;;;;;;;8.63;3.70;;;;;;;;;;5137916;27;20507;-80
2022/03/27 07:26:17;;;;;;;13.43;6.72;;;;;;;;;;5129142;27;20043;-78
2022/03/27 07:29:04;;;;;;;15.05;7.00;;;;;;;;;;5137638;27;20054;-80
2022/03/27 07:31:50;;;;;;;9.15;4.72;;;;;;;;;;5137913;27;20042;-79
2022/03/27 07:34:36;;;;;;;20.88;8.60;;;;;;;;;;5137201;27;20064;-86
2022/03/27 07:37:21;;;;;;;24.63;7.88;;;;;;;;;;5144711;27;20038;-85
2022/03/27 07:40:08;;;;;;;20.83;8.45;;;;;;;;;;5136916;27;20408;-86
2022/03/27 07:42:54;;;;;;;17.40;7.80;;;;;;;;;;5114185;27;20488;-86
2022/03/27 07:45:39;;;;;;;15.95;7.32;;;;;;;;;;5137882;27;20047;-86
2022/03/27 07:48:26;;;;;;;18.50;9.02;;;;;;;;;;5136980;27;20047;-86
2022/03/27 07:51:11;;;;;;;21.55;7.18;;;;;;;;;;5138503;27;20035;-85
2022/03/27 07:53:57;;;;;;;20.25;8.68;;;;;;;;;;5114919;27;20396;-86
2022/03/27 07:56:43;;;;;;;26.08;11.40;;;;;;;;;;5136628;27;20043;-86
2022/03/27 07:59:28;;;;;;;20.40;6.47;;;;;;;;;;5128687;27;20051;-86
2022/03/27 08:02:15;;;;;;;24.05;11.25;;;;;;;;;;5137364;27;20039;-86
2022/03/27 08:05:00;;;;;;;25.20;10.75;;;;;;;;;;5136757;27;20043;-86
2022/03/27 08:07:46;;;;;;;21.05;10.70;;;;;;;;;;5137625;27;20039;-86
2022/03/27 08:10:32;;;;;;;19.05;10.38;;;;;;;;;;5135159;27;20039;-87
2022/03/27 08:13:17;;;;;;;22.10;11.98;;;;;;;;;;5121359;27;20051;-82
2022/03/27 08:16:03;;;;;;;23.38;11.77;;;;;;;;;;5143032;27;20448;-82
2022/03/27 08:18:48;;;;;;;18.15;9.93;;;;;;;;;;5136000;27;20043;-82
2022/03/27 08:21:34;;;;;;;24.17;9.88;;;;;;;;;;5136768;27;20043;-82
2022/03/27 08:24:20;;;;;;;19.17;10.18;;;;;;;;;;5136149;27;20039;-83
2022/03/27 08:27:07;;;;;;;24.27;10.70;;;;;;;;;;5137711;27;20039;-81
2022/03/27 08:29:53;;;;;;;27.83;10.45;;;;;;;;;;5136721;27;20039;-85
2022/03/27 08:32:38;;;;;;;19.60;9.70;;;;;;;;;;5135378;27;20043;-83
2022/03/27 08:35:24;;;;;;;18.55;9.48;;;;;;;;;;5136861;27;20043;-85
2022/03/27 08:38:14;;;;;;;18.25;9.88;;;;;;;;;;5136901;27;20047;-84
2022/03/27 08:41:02;;;;;;;21.83;10.00;;;;;;;;;;5136691;27;20051;-84
2022/03/27 08:43:49;;;;;;;18.95;9.93;;;;;;;;;;5136272;27;20054;-85
2022/03/27 08:46:34;;;;;;;28.80;11.60;;;;;;;;;;5127107;27;20399;-86
2022/03/27 08:49:25;;;;;;;23.55;10.55;;;;;;;;;;5136081;27;20047;-84
2022/03/27 08:53:04;;;;;;;21.30;10.25;;;;;;;;;;5138143;27;20039;-85
2022/03/27 08:55:57;;;;;;;25.80;10.85;;;;;;;;;;5138254;27;20047;-83
2022/03/27 08:58:46;;;;;;;22.88;11.73;;;;;;;;;;5144684;27;20043;-84
2022/03/27 09:01:32;;;;;;;22.52;12.07;;;;;;;;;;5135400;27;20407;-86
2022/03/27 09:04:17;;;;;;;17.85;9.52;;;;;;;;;;5119943;27;20043;-87
2022/03/27 09:07:03;;;;;;;23.23;11.52;;;;;;;;;;5135210;27;20043;-84
2022/03/27 09:09:49;;;;;;;17.50;10.07;;;;;;;;;;5135710;27;20043;-85
2022/03/27 09:12:35;;;;;;;20.67;10.23;;;;;;;;;;5136926;27;20047;-84
2022/03/27 09:15:20;;;;;;;20.92;10.50;;;;;;;;;;5136211;27;20039;-84
2022/03/27 09:18:10;;;;;;;25.95;11.57;;;;;;;;;;5136182;27;20055;-86
2022/03/27 09:20:55;;;;;;;22.23;10.35;;;;;;;;;;5134701;27;20051;-85
2022/03/27 09:23:41;;;;;;;19.42;10.60;;;;;;;;;;5135550;27;20039;-83
2022/03/27 09:26:27;;;;;;;23.88;11.27;;;;;;;;;;5135434;27;20043;-83
2022/03/27 09:29:12;;;;;;;15.93;8.23;;;;;;;;;;5134987;27;20043;-85
2022/03/27 09:31:58;;;;;;;24.23;11.55;;;;;;;;;;5126794;27;20043;-84
2022/03/27 09:35:11;;;;;;;19.50;10.70;;;;;;;;;;5126236;27;20043;-76
2022/03/27 09:37:56;;;;;;;21.08;10.48;;;;;;;;;;5140870;27;20051;-78
2022/03/27 09:40:42;;;;;;;21.67;11.55;;;;;;;;;;5135169;27;20046;-78
2022/03/27 09:43:27;;;;;;;29.88;11.23;;;;;;;;;;5134451;27;20043;-78
2022/03/27 09:46:13;;;;;;;26.27;11.32;;;;;;;;;;5134909;27;20055;-78
2022/03/27 09:48:59;;;;;;;19.70;10.20;;;;;;;;;;5141204;27;20039;-78
2022/03/27 09:52:08;;;;;;;13.95;7.85;;;;;;;;;;5134484;27;20422;-78
2022/03/27 09:54:54;;;;;;;22.65;10.60;;;;;;;;;;5142083;27;20047;-78
2022/03/27 09:57:41;;;;;;;22.73;11.05;;;;;;;;;;5133987;27;20387;-78
2022/03/27 10:00:29;;;;;;;22.30;9.25;;;;;;;;;;5135307;27;20051;-77
2022/03/27 10:03:14;;;;;;;22.30;7.93;;;;;;;;;;5141528;27;20040;-80
2022/03/27 10:06:02;;;;;;;25.13;10.05;;;;;;;;;;5141858;27;20047;-79
2022/03/27 10:08:48;;;;;;;23.15;11.02;;;;;;;;;;5135392;27;20039;-79
2022/03/27 10:11:34;;;;;;;19.35;10.52;;;;;;;;;;5133974;27;20043;-79
2022/03/27 10:14:20;;;;;;;21.73;10.15;;;;;;;;;;5141376;27;20039;-79
2022/03/27 10:17:08;;;;;;;25.08;10.90;;;;;;;;;;5134477;27;20047;-77
2022/03/27 10:20:14;;;;;;;18.75;8.48;;;;;;;;;;5133815;27;20039;-78
2022/03/27 10:23:07;;;;;;;23.95;11.13;;;;;;;;;;5134354;27;20046;-78
2022/03/27 10:25:55;;;;;;;13.63;6.22;;;;;;;;;;5133944;27;20031;-76
2022/03/27 10:28:42;;;;;;;22.02;13.07;;;;;;;;;;5133905;28;20039;-77
2022/03/27 10:31:27;;;;;;;26.05;11.55;;;;;;;;;;5133264;28;20043;-77
2022/03/27 10:34:14;;;;;;;21.92;10.65;;;;;;;;;;5140886;27;20407;-78
2022/03/27 10:37:08;;;;;;;19.65;10.00;;;;;;;;;;5141406;27;20031;-77
2022/03/27 10:40:00;;;;;;;;;;;;;;;;;;5133818;28;20043;-76
2022/03/27 10:43:19;;;;;;;22.95;10.18;;;;;;;;;;5134597;28;19915;-78
2022/03/27 10:46:17;;;;;;;15.30;9.88;;;;;;;;;;5140639;27;20047;-77
2022/03/27 10:49:14;;;;;;;21.13;11.55;;;;;;;;;;5133880;27;20467;-79
2022/03/27 10:52:06;;;;;;;20.23;10.10;;;;;;;;;;5129922;27;20039;-78
2022/03/27 10:55:06;;;;;;;23.02;11.38;;;;;;;;;;5137640;27;20043;-77
2022/03/27 10:57:51;;;;;;;24.23;11.93;;;;;;;;;;5138243;27;20043;-78
2022/03/27 11:00:42;;;;;;;22.17;10.45;;;;;;;;;;5138078;27;20047;-81
2022/03/27 11:03:45;;;;;;;19.08;11.00;;;;;;;;;;5138336;27;20051;-81
2022/03/27 11:06:36;;;;;;;17.27;9.13;;;;;;;;;;5163313;27;20039;-79
2022/03/27 11:09:32;;;;;;;28.98;11.30;;;;;;;;;;5137346;27;20039;-78
2022/03/27 11:12:27;;;;;;;21.50;10.75;;;;;;;;;;5137061;27;20047;-79
2022/03/27 11:15:16;;;;;;;20.40;10.00;;;;;;;;;;5128413;27;20051;-80
2022/03/27 11:18:10;;;;;;;20.05;10.70;;;;;;;;;;5137730;27;20043;-81
2022/03/27 11:20:55;;;;;;;18.58;9.00;;;;;;;;;;5137080;27;20414;-80
2022/03/27 11:23:41;;;;;;;16.67;9.57;;;;;;;;;;5136896;27;20383;-80
2022/03/27 11:26:29;;;;;;;17.38;9.20;;;;;;;;;;5145009;27;20047;-76
2022/03/27 11:29:18;;;;;;;23.92;10.82;;;;;;;;;;5144008;27;20196;-75
2022/03/27 11:32:09;;;;;;;20.38;10.63;;;;;;;;;;5137188;27;20048;-76
2022/03/27 11:35:17;;;;;;;18.55;10.20;;;;;;;;;;5137465;27;20043;-76
2022/03/27 11:38:20;;;;;;;20.48;8.07;;;;;;;;;;5137390;27;20043;-74
2022/03/27 11:41:44;;;;;;;19.02;10.77;;;;;;;;;;5144362;27;20035;-77
2022/03/27 11:47:38;;;;;;;18.60;9.13;;;;;;;;;;5137437;27;20047;-74
2022/03/27 11:50:32;;;;;;;28.52;11.30;;;;;;;;;;5136505;27;20043;-76
2022/03/27 11:53:29;;;;;;;25.60;11.32;;;;;;;;;;5135512;27;20047;-77
2022/03/27 11:56:13;;;;;;;22.33;11.15;;;;;;;;;;5135522;27;20047;-76
2022/03/27 11:59:08;;;;;;;27.00;10.95;;;;;;;;;;5143905;27;20043;-77
2022/03/27 12:01:55;;;;;;;;;;;;;;;;;;5141946;27;20043;-76
2022/03/27 12:04:54;;;;;;;28.60;9.93;;;;;;;;;;5135397;27;19915;-76
2022/03/27 12:07:58;;;;;;;20.63;11.00;;;;;;;;;;5136351;27;20043;-77
2022/03/27 12:11:04;;;;;;;28.80;11.50;;;;;;;;;;5135332;27;20495;-77
2022/03/27 12:13:51;;;;;;;26.60;12.07;;;;;;;;;;5136640;27;20047;-77
2022/03/27 12:16:37;;;;;;;23.52;11.20;;;;;;;;;;5136725;27;20503;-77
2022/03/27 12:19:22;;;;;;;24.50;12.07;;;;;;;;;;5135892;27;20047;-76
2022/03/27 12:22:08;;;;;;;23.92;11.38;;;;;;;;;;5136691;27;20039;-76
2022/03/27 12:25:04;;;;;;;23.23;11.75;;;;;;;;;;5136381;27;20051;-76
2022/03/27 12:31:19;;;;;;;25.92;12.27;;;;;;;;;;5127533;27;20050;-77
2022/03/27 12:34:04;;;;;;;24.38;12.02;;;;;;;;;;5136034;27;20043;-76
2022/03/27 12:37:12;;;;;;;31.65;11.25;;;;;;;;;;5136542;27;20051;-77
2022/03/27 12:39:57;;;;;;;20.00;11.07;;;;;;;;;;5135629;27;20115;-78
2022/03/27 12:42:46;;;;;;;28.15;10.80;;;;;;;;;;5136256;27;20043;-76
2022/03/27 12:45:36;;;;;;;21.10;10.52;;;;;;;;;;5137283;27;20400;-76
2022/03/27 12:48:25;;;;;;;22.10;8.43;;;;;;;;;;5135615;27;20051;-76
2022/03/27 12:51:13;;;;;;;22.92;9.77;;;;;;;;;;5135358;27;20039;-75
2022/03/27 12:54:10;;;;;;;24.20;10.52;;;;;;;;;;5142704;27;20043;-77
2022/03/27 12:56:57;;;;;;;24.85;9.68;;;;;;;;;;5120468;27;20043;-76
2022/03/27 12:59:42;;;;;;;20.55;10.50;;;;;;;;;;5135936;27;20047;-76
2022/03/27 13:02:28;;;;;;;30.63;12.13;;;;;;;;;;5135565;27;20047;-77
2022/03/27 13:05:15;;;;;;;22.90;9.98;;;;;;;;;;5136046;27;20043;-76
2022/03/27 13:08:00;;;;;;;18.00;10.40;;;;;;;;;;5142845;27;20392;-78
2022/03/27 13:10:58;;;;;;;28.08;10.55;;;;;;;;;;5135370;27;20039;-75
2022/03/27 13:13:46;;;;;;;31.58;12.25;;;;;;;;;;5126135;27;20035;-77
2022/03/27 13:16:46;;;;;;;24.33;11.13;;;;;;;;;;5132707;27;20038;-76
2022/03/27 13:19:43;;;;;;;25.80;11.20;;;;;;;;;;5157621;27;20039;-77
2022/03/27 13:22:29;;;;;;;22.65;9.73;;;;;;;;;;5135487;27;20043;-77
2022/03/27 13:25:14;;;;;;;17.17;9.60;;;;;;;;;;5134882;27;20039;-76
2022/03/27 13:28:00;;;;;;;15.15;7.07;;;;;;;;;;5135023;27;20047;-78
2022/03/27 13:30:45;;;;;;;19.05;8.45;;;;;;;;;;5134967;27;20483;-78
2022/03/27 13:33:31;;;;;;;15.35;7.32;;;;;;;;;;5136069;27;20043;-77
2022/03/27 13:36:16;;;;;;;17.30;8.15;;;;;;;;;;5135073;27;20039;-77
2022/03/27 13:39:04;;;;;;;14.45;6.80;;;;;;;;;;5139315;27;20391;-77
2022/03/27 13:44:55;;;;;;;14.17;5.90;;;;;;;;;;5085524;28;20055;-85
2022/03/27 13:47:40;;;;;;;17.25;8.88;;;;;;;;;;5101161;28;20048;-82
2022/03/27 13:50:26;;;;;;;16.50;8.98;;;;;;;;;;5078647;28;20040;-85
2022/03/27 13:53:11;;;;;;;22.20;7.57;;;;;;;;;;5067103;28;20048;-84
2022/03/27 13:55:59;;;;;;;15.02;7.32;;;;;;;;;;5093206;28;20044;-84
2022/03/27 13:58:44;;;;;;;14.32;7.35;;;;;;;;;;5076024;28;20036;-85
2022/03/27 14:01:32;;;;;;;26.25;9.73;;;;;;;;;;5095452;28;20052;-85
2022/03/27 14:04:20;;;;;;;23.73;10.50;;;;;;;;;;5094217;28;20041;-87
2022/03/27 14:07:06;;;;;;;15.95;7.82;;;;;;;;;;5070342;28;20043;-86
2022/03/27 14:09:51;;;;;;;15.40;7.93;;;;;;;;;;5111258;28;20490;-84
2022/03/27 14:12:37;;;;;;;18.10;7.38;;;;;;;;;;5096945;28;20044;-87
2022/03/27 14:15:21;;;;;;;9.95;6.15;;;;;;;;;;5085522;28;20048;-83
2022/03/27 14:18:07;;;;;;;8.52;5.03;;;;;;;;;;5079256;28;20052;-82
2022/03/27 14:20:53;;;;;;;21.42;8.02;;;;;;;;;;5093957;28;20044;-81
2022/03/27 14:23:42;;;;;;;11.15;6.80;;;;;;;;;;5100770;28;20044;-86
2022/03/27 14:26:28;;;;;;;12.07;5.88;;;;;;;;;;5078429;28;20052;-85
2022/03/27 14:29:14;;;;;;;12.57;6.38;;;;;;;;;;5077211;28;20048;-84
2022/03/27 14:31:59;;;;;;;12.80;6.40;;;;;;;;;;5073097;28;20044;-85
2022/03/27 14:34:45;;;;;;;9.30;5.15;;;;;;;;;;5073973;28;20481;-85
2022/03/27 14:37:30;;;;;;;16.35;6.03;;;;;;;;;;5073693;28;20056;-85
2022/03/27 14:40:16;;;;;;;20.08;6.05;;;;;;;;;;5058408;28;20040;-84
2022/03/27 14:43:01;;;;;;;13.98;5.82;;;;;;;;;;5085190;28;20044;-87
2022/03/27 14:45:50;;;;;;;15.15;6.57;;;;;;;;;;5077169;28;20037;-85
2022/03/27 14:48:37;;;;;;;12.20;6.25;;;;;;;;;;5075457;28;20049;-87
2022/03/27 14:51:23;;;;;;;12.70;6.10;;;;;;;;;;5070624;28;20400;-85
2022/03/27 14:57:12;;;;;;;7.35;4.18;;;;;;;;;;5075246;28;20489;-83
2022/03/27 14:59:59;;;;;;;18.52;6.90;;;;;;;;;;5079415;28;20040;-87
2022/03/27 15:02:44;;;;;;;13.75;7.50;;;;;;;;;;5065071;28;20496;-87
2022/03/27 15:05:29;;;;;;;13.13;5.10;;;;;;;;;;5094899;28;20044;-82
2022/03/27 15:08:15;;;;;;;16.42;6.10;;;;;;;;;;5073370;28;20057;-81
2022/03/27 15:11:00;;;;;;;17.73;7.07;;;;;;;;;;5080310;28;20381;-82
2022/03/27 15:13:46;;;;;;;21.88;7.95;;;;;;;;;;5079405;28;20162;-81
2022/03/27 15:16:31;;;;;;;11.88;5.75;;;;;;;;;;5064947;28;20044;-83
2022/03/27 15:19:20;;;;;;;11.20;5.97;;;;;;;;;;5050937;28;20044;-83
2022/03/27 15:22:09;;;;;;;19.85;7.57;;;;;;;;;;5073115;28;20045;-85
2022/03/27 15:24:55;;;;;;;12.55;5.43;;;;;;;;;;5073417;28;20036;-83
2022/03/27 15:27:47;;;;;;;8.98;5.47;;;;;;;;;;5050793;28;20052;-86
2022/03/27 15:30:41;;;;;;;11.60;6.57;;;;;;;;;;5059649;28;20028;-84
2022/03/27 15:33:27;;;;;;;18.70;9.52;;;;;;;;;;5057955;28;20048;-84
2022/03/27 15:36:14;;;;;;;22.30;10.07;;;;;;;;;;5066121;28;20045;-85
2022/03/27 15:39:00;;;;;;;17.88;7.78;;;;;;;;;;5078687;28;20492;-85
2022/03/27 15:41:46;;;;;;;19.77;7.70;;;;;;;;;;5089640;28;20044;-83
2022/03/27 15:44:31;;;;;;;10.50;6.95;;;;;;;;;;5088907;28;20045;-83
2022/03/27 15:47:17;;;;;;;28.05;7.18;;;;;;;;;;5096174;28;20047;-84
2022/03/27 15:50:04;;;;;;;15.50;7.43;;;;;;;;;;5087427;28;20040;-85
2022/03/27 15:52:50;;;;;;;13.18;5.93;;;;;;;;;;5080804;28;20036;-85
2022/03/27 15:55:48;;;;;;;13.48;7.25;;;;;;;;;;5061549;28;20056;-86
2022/03/27 15:58:34;;;;;;;13.68;5.82;;;;;;;;;;5072566;28;20491;-86
2022/03/27 16:01:20;;;;;;;10.52;6.07;;;;;;;;;;5085021;28;20040;-85
2022/03/27 16:04:05;;;;;;;10.55;5.95;;;;;;;;;;5094353;28;20496;-85
2022/03/27 16:06:51;;;;;;;11.75;5.18;;;;;;;;;;5086123;28;20048;-84
2022/03/27 16:09:38;;;;;;;16.33;7.45;;;;;;;;;;5073683;28;20043;-87
2022/03/27 16:12:24;;;;;;;27.15;15.10;;;;;;;;;;5063668;28;20045;-85
2022/03/27 16:15:10;;;;;;;37.75;21.38;;;;;;;;;;5087674;28;20051;-85
2022/03/27 16:17:56;;;;;;;31.73;12.48;;;;;;;;;;5077103;28;20048;-84
2022/03/27 16:20:41;;;;;;;21.90;8.85;;;;;;;;;;5088014;28;20032;-86
2022/03/27 16:23:27;;;;;;;17.42;8.13;;;;;;;;;;5078076;28;20423;-84
2022/03/27 16:26:15;;;;;;;35.67;16.77;;;;;;;;;;5077841;28;20041;-85
2022/03/27 16:29:03;;;;;;;107.70;58.28;;;;;;;;;;5086640;28;20051;-85
2022/03/27 16:31:48;;;;;;;33.15;17.45;;;;;;;;;;5100721;28;20031;-85
2022/03/27 16:34:34;;;;;;;28.27;12.15;;;;;;;;;;5093837;28;20408;-81
2022/03/27 16:37:22;;;;;;;50.92;15.70;;;;;;;;;;5090318;28;20044;-83
2022/03/27 16:40:08;;;;;;;40.15;23.27;;;;;;;;;;5080529;28;20053;-83
2022/03/27 16:42:54;;;;;;;42.15;23.60;;;;;;;;;;5087832;28;20041;-83
2022/03/27 16:45:39;;;;;;;44.75;25.48;;;;;;;;;;5102393;28;20044;-83
2022/03/27 16:48:25;;;;;;;33.60;16.92;;;;;;;;;;5106911;28;20059;-84
2022/03/27 16:51:10;;;;;;;22.17;11.05;;;;;;;;;;5109653;28;20048;-80
2022/03/27 16:53:56;;;;;;;26.77;14.00;;;;;;;;;;5104640;28;20044;-80
2022/03/27 16:56:41;;;;;;;21.90;11.18;;;;;;;;;;5095416;28;20028;-79
2022/03/27 16:59:27;;;;;;;20.98;13.23;;;;;;;;;;5101260;28;20048;-81
2022/03/27 17:02:14;;;;;;;20.30;12.48;;;;;;;;;;5078839;28;20052;-81
2022/03/27 17:04:59;;;;;;;17.40;11.07;;;;;;;;;;5094197;28;20036;-83
2022/03/27 17:07:45;;;;;;;19.05;10.80;;;;;;;;;;5094498;28;20052;-80
2022/03/27 17:10:31;;;;;;;26.05;14.23;;;;;;;;;;5094922;28;20036;-82